Time;durP1;ratioP1;P1;durP2;ratioP2;P2;SDS_P1;SDS_P2;PMS_P1;PMS_P2;Temp;Humidity;BMP_temperature;BMP_pressure;BME280_temperature;BME280_humidity;BME280_pressure;Samples;Min_cycle;Max_cycle;Signal;HPM_P1;HPM_P2
2021/07/18 00:01:54;;;;;;;;;;;25.30;56.60;;;;;;5087184;28;20449;-65
2021/07/18 00:04:20;;;;;;;;;;;25.20;56.60;;;;;;5087702;28;20022;-63
2021/07/18 00:06:45;;;;;;;;;;;25.30;56.60;;;;;;5085964;28;19919;-62
2021/07/18 00:09:11;;;;;;;;;;;25.30;56.60;;;;;;5087665;28;19912;-63
2021/07/18 00:11:37;;;;;;;;;;;25.30;56.70;;;;;;5086497;28;19995;-63
2021/07/18 00:14:03;;;;;;;;;;;25.30;56.70;;;;;;5088285;28;19916;-63
2021/07/18 00:16:28;;;;;;;;;;;25.20;56.70;;;;;;5085562;28;19976;-67
2021/07/18 00:18:54;;;;;;;;;;;25.30;56.70;;;;;;5084446;28;19908;-64
2021/07/18 00:21:19;;;;;;;;;;;25.20;56.70;;;;;;5086675;28;19916;-64
2021/07/18 00:23:45;;;;;;;;;;;25.20;56.70;;;;;;5071577;28;20484;-66
2021/07/18 00:26:11;;;;;;;;;;;25.20;56.70;;;;;;5087620;28;19916;-63
2021/07/18 00:28:36;;;;;;;;;;;25.20;56.70;;;;;;5084478;28;19923;-65
2021/07/18 00:31:02;;;;;;;;;;;25.20;56.70;;;;;;5085568;28;19912;-64
2021/07/18 00:33:27;;;;;;;;;;;25.20;56.70;;;;;;5084712;28;20020;-64
2021/07/18 00:35:53;;;;;;;;;;;25.20;56.70;;;;;;5084263;28;20065;-64
2021/07/18 00:38:18;;;;;;;;;;;25.20;56.70;;;;;;5075016;28;19912;-64
2021/07/18 00:40:44;;;;;;;;;;;25.20;56.80;;;;;;5086112;28;20383;-66
2021/07/18 00:43:09;;;;;;;;;;;25.20;56.80;;;;;;5083111;28;19922;-65
2021/07/18 00:45:35;;;;;;;;;;;25.20;56.80;;;;;;5069131;28;19984;-64
2021/07/18 00:48:00;;;;;;;;;;;25.20;56.80;;;;;;5078476;28;19912;-65
2021/07/18 00:50:27;;;;;;;;;;;25.20;56.80;;;;;;5085444;28;19911;-63
2021/07/18 00:52:52;;;;;;;;;;;25.20;56.80;;;;;;5086994;28;19962;-65
2021/07/18 00:55:19;;;;;;;;;;;25.20;56.80;;;;;;5083832;28;19943;-64
2021/07/18 00:57:46;;;;;;;;;;;25.20;56.80;;;;;;5085133;28;19907;-65
2021/07/18 01:00:12;;;;;;;;;;;25.20;56.80;;;;;;5082377;28;20007;-63
2021/07/18 01:02:38;;;;;;;;;;;25.10;56.80;;;;;;5087370;28;19916;-64
2021/07/18 01:05:05;;;;;;;;;;;25.20;56.80;;;;;;5084213;28;19911;-64
2021/07/18 01:07:32;;;;;;;;;;;25.10;56.80;;;;;;5086750;28;19908;-64
2021/07/18 01:09:57;;;;;;;;;;;25.20;56.80;;;;;;5066557;28;19916;-63
2021/07/18 01:12:23;;;;;;;;;;;25.20;56.80;;;;;;5088457;28;19948;-64
2021/07/18 01:14:49;;;;;;;;;;;25.20;56.80;;;;;;5086169;28;19915;-64
2021/07/18 01:17:17;;;;;;;;;;;25.20;56.80;;;;;;5085936;28;19908;-66
2021/07/18 01:19:42;;;;;;;;;;;25.10;56.80;;;;;;5084066;28;19908;-65
2021/07/18 01:22:08;;;;;;;;;;;25.20;56.80;;;;;;5087346;28;19924;-64
2021/07/18 01:24:33;;;;;;;;;;;25.10;56.70;;;;;;5077499;28;19927;-65
2021/07/18 01:27:01;;;;;;;;;;;25.20;56.80;;;;;;5084915;28;19980;-65
2021/07/18 01:29:28;;;;;;;;;;;25.20;56.80;;;;;;5081803;28;19957;-63
2021/07/18 01:31:53;;;;;;;;;;;25.10;56.70;;;;;;5084367;28;20002;-64
2021/07/18 01:34:19;;;;;;;;;;;25.10;56.70;;;;;;5086154;28;19991;-65
2021/07/18 01:36:44;;;;;;;;;;;25.10;56.70;;;;;;5082563;28;20462;-64
2021/07/18 01:39:11;;;;;;;;;;;25.10;56.70;;;;;;5082628;28;19912;-64
2021/07/18 01:41:37;;;;;;;;;;;25.10;56.70;;;;;;5085230;28;19912;-64
2021/07/18 01:44:03;;;;;;;;;;;25.10;56.70;;;;;;5083535;28;20311;-65
2021/07/18 01:46:29;;;;;;;;;;;25.10;57.20;;;;;;5063284;28;20019;-65
2021/07/18 01:48:54;;;;;;;;;;;25.10;56.70;;;;;;5074224;28;19916;-64
2021/07/18 01:51:24;;;;;;;;;;;25.10;56.70;;;;;;5085908;28;20427;-64
2021/07/18 01:53:53;;;;;;;;;;;25.10;56.70;;;;;;5084899;28;19926;-64
2021/07/18 01:56:19;;;;;;;;;;;25.10;56.70;;;;;;5083536;28;19990;-65
2021/07/18 01:58:46;;;;;;;;;;;25.10;56.70;;;;;;5088035;28;20530;-64
2021/07/18 02:01:11;;;;;;;;;;;25.10;56.70;;;;;;5090476;28;20342;-65
2021/07/18 02:03:37;;;;;;;;;;;25.10;56.70;;;;;;5085713;28;19946;-64
2021/07/18 02:06:03;;;;;;;;;;;25.10;56.70;;;;;;5086062;28;20354;-65
2021/07/18 02:08:28;;;;;;;;;;;25.10;56.70;;;;;;5084324;28;19912;-64
2021/07/18 02:10:53;;;;;;;;;;;25.10;56.70;;;;;;5080522;28;20575;-65
2021/07/18 02:13:19;;;;;;;;;;;25.10;56.70;;;;;;5080396;28;20022;-64
2021/07/18 02:15:45;;;;;;;;;;;25.10;56.70;;;;;;5081799;28;19912;-63
2021/07/18 02:18:11;;;;;;;;;;;25.10;56.70;;;;;;5066565;28;19932;-65
2021/07/18 02:20:36;;;;;;;;;;;25.10;56.70;;;;;;5084600;28;19918;-65
2021/07/18 02:23:02;;;;;;;;;;;25.10;56.70;;;;;;5080477;28;20590;-64
2021/07/18 02:25:29;;;;;;;;;;;25.10;56.70;;;;;;5084460;28;19912;-65
2021/07/18 02:27:55;;;;;;;;;;;25.10;56.80;;;;;;5085443;28;19955;-64
2021/07/18 02:30:21;;;;;;;;;;;25.10;56.70;;;;;;5065661;28;20319;-64
2021/07/18 02:32:48;;;;;;;;;;;25.10;56.70;;;;;;5073682;28;20362;-64
2021/07/18 02:35:14;;;;;;;;;;;25.10;56.60;;;;;;5069031;28;19912;-65
2021/07/18 02:37:43;;;;;;;;;;;25.10;56.70;;;;;;5086309;28;20390;-65
2021/07/18 02:40:09;;;;;;;;;;;25.10;56.60;;;;;;5085975;28;19956;-65
2021/07/18 02:42:35;;;;;;;;;;;25.10;56.60;;;;;;5086257;28;20359;-65
2021/07/18 02:45:01;;;;;;;;;;;25.10;56.60;;;;;;5084793;28;20420;-64
2021/07/18 02:47:26;;;;;;;;;;;25.10;56.70;;;;;;5086859;28;20094;-64
2021/07/18 02:49:52;;;;;;;;;;;25.10;56.60;;;;;;5081736;28;19943;-65
2021/07/18 02:52:17;;;;;;;;;;;25.10;56.60;;;;;;5090219;28;19912;-64
2021/07/18 02:54:43;;;;;;;;;;;25.10;56.60;;;;;;5069433;28;19959;-64
2021/07/18 02:57:08;;;;;;;;;;;25.10;56.70;;;;;;5090291;28;19908;-63
2021/07/18 02:59:34;;;;;;;;;;;25.10;56.70;;;;;;5089200;28;20361;-65
2021/07/18 03:01:59;;;;;;;;;;;25.00;56.60;;;;;;5088277;28;19912;-65
2021/07/18 03:04:28;;;;;;;;;;;25.00;56.60;;;;;;5069106;28;19930;-64
2021/07/18 03:06:54;;;;;;;;;;;25.00;56.60;;;;;;5088520;28;19939;-65
2021/07/18 03:09:23;;;;;;;;;;;25.10;56.60;;;;;;5087158;28;20347;-66
2021/07/18 03:11:49;;;;;;;;;;;25.10;56.60;;;;;;5067798;28;20410;-65
2021/07/18 03:14:14;;;;;;;;;;;25.00;56.60;;;;;;5083457;28;19912;-66
2021/07/18 03:16:40;;;;;;;;;;;25.00;56.60;;;;;;5087922;28;19955;-65
2021/07/18 03:19:05;;;;;;;;;;;25.10;56.60;;;;;;5087920;28;19911;-65
2021/07/18 03:21:34;;;;;;;;;;;25.00;56.50;;;;;;5088610;28;20010;-64
2021/07/18 03:24:00;;;;;;;;;;;25.00;56.50;;;;;;5088901;28;20394;-65
2021/07/18 03:26:26;;;;;;;;;;;25.00;56.50;;;;;;5086139;28;19911;-64
2021/07/18 03:28:51;;;;;;;;;;;25.00;56.50;;;;;;5089094;28;19926;-64
2021/07/18 03:31:17;;;;;;;;;;;25.00;56.60;;;;;;5087283;28;20348;-65
2021/07/18 03:33:42;;;;;;;;;;;25.00;56.50;;;;;;5071802;28;19914;-64
2021/07/18 03:36:08;;;;;;;;;;;25.00;56.50;;;;;;5089652;28;19912;-66
2021/07/18 03:38:34;;;;;;;;;;;25.00;56.50;;;;;;5087875;28;20683;-65
2021/07/18 03:40:59;;;;;;;;;;;25.00;56.50;;;;;;5089030;28;20567;-64
2021/07/18 03:43:25;;;;;;;;;;;25.00;56.50;;;;;;5088796;28;20000;-65
2021/07/18 03:45:50;;;;;;;;;;;25.00;56.50;;;;;;5084397;28;19915;-64
2021/07/18 03:48:16;;;;;;;;;;;25.00;56.50;;;;;;5086208;28;20349;-64
2021/07/18 03:50:41;;;;;;;;;;;25.00;56.50;;;;;;5086599;28;19912;-64
2021/07/18 03:53:07;;;;;;;;;;;25.00;56.50;;;;;;5087584;28;20002;-65
2021/07/18 03:55:32;;;;;;;;;;;25.00;56.50;;;;;;5085994;28;20279;-65
2021/07/18 03:57:58;;;;;;;;;;;25.00;56.50;;;;;;5080675;28;20002;-65
2021/07/18 04:00:23;;;;;;;;;;;25.00;56.50;;;;;;5082205;28;19909;-65
2021/07/18 04:02:49;;;;;;;;;;;25.00;56.50;;;;;;5087717;28;19908;-64
2021/07/18 04:05:14;;;;;;;;;;;25.00;56.50;;;;;;5086770;28;19950;-65
2021/07/18 04:07:40;;;;;;;;;;;25.00;56.50;;;;;;5079076;28;20006;-64
2021/07/18 04:10:05;;;;;;;;;;;25.00;56.50;;;;;;5084844;28;20002;-64
2021/07/18 04:12:31;;;;;;;;;;;25.00;56.50;;;;;;5080459;28;20516;-64
2021/07/18 04:14:56;;;;;;;;;;;25.00;56.50;;;;;;5081000;28;19998;-65
2021/07/18 04:17:22;;;;;;;;;;;24.90;56.40;;;;;;5088177;28;19912;-64
2021/07/18 04:19:47;;;;;;;;;;;24.90;56.40;;;;;;5081840;28;19961;-64
2021/07/18 04:22:13;;;;;;;;;;;24.90;56.40;;;;;;5083638;28;19976;-65
2021/07/18 04:24:38;;;;;;;;;;;24.90;56.40;;;;;;5085045;28;20416;-63
2021/07/18 04:27:04;;;;;;;;;;;24.90;56.40;;;;;;5085647;28;19912;-65
2021/07/18 04:29:30;;;;;;;;;;;24.90;56.40;;;;;;5077747;28;20030;-66
2021/07/18 04:31:55;;;;;;;;;;;24.90;56.40;;;;;;5072892;28;20476;-64
2021/07/18 04:34:21;;;;;;;;;;;24.90;56.40;;;;;;5085661;28;19961;-63
2021/07/18 04:36:46;;;;;;;;;;;24.90;56.40;;;;;;5087188;28;19934;-64
2021/07/18 04:39:12;;;;;;;;;;;24.90;56.40;;;;;;5082548;28;20331;-63
2021/07/18 04:41:37;;;;;;;;;;;24.90;56.40;;;;;;5082839;28;19951;-63
2021/07/18 04:44:04;;;;;;;;;;;24.90;56.40;;;;;;5084910;28;19965;-63
2021/07/18 04:46:29;;;;;;;;;;;24.90;56.40;;;;;;5091310;28;19919;-65
2021/07/18 04:48:55;;;;;;;;;;;24.90;56.40;;;;;;5086897;28;19912;-65
2021/07/18 04:51:20;;;;;;;;;;;24.90;56.40;;;;;;5087737;28;19916;-65
2021/07/18 04:53:46;;;;;;;;;;;24.90;56.40;;;;;;5084823;28;20065;-65
2021/07/18 04:56:11;;;;;;;;;;;24.90;56.40;;;;;;5085356;28;20683;-64
2021/07/18 04:58:37;;;;;;;;;;;24.90;56.30;;;;;;5080640;28;20036;-64
2021/07/18 05:01:03;;;;;;;;;;;24.90;56.30;;;;;;5067052;28;20367;-63
2021/07/18 05:03:28;;;;;;;;;;;24.90;56.30;;;;;;5086641;28;19919;-63
2021/07/18 05:05:54;;;;;;;;;;;24.90;56.40;;;;;;5086536;28;20512;-64
2021/07/18 05:08:20;;;;;;;;;;;24.90;56.30;;;;;;5085819;28;19920;-65
2021/07/18 05:10:46;;;;;;;;;;;24.90;56.40;;;;;;5086537;28;20366;-64
2021/07/18 05:13:11;;;;;;;;;;;24.90;56.30;;;;;;5086758;28;19912;-64
2021/07/18 05:15:37;;;;;;;;;;;24.90;56.30;;;;;;5085429;28;19916;-64
2021/07/18 05:18:09;;;;;;;;;;;24.90;56.30;;;;;;5086474;28;19907;-65
2021/07/18 05:20:35;;;;;;;;;;;24.90;56.30;;;;;;5062597;28;20259;-64
2021/07/18 05:23:01;;;;;;;;;;;24.90;56.30;;;;;;5083538;28;19916;-63
2021/07/18 05:25:26;;;;;;;;;;;24.80;56.30;;;;;;5086823;28;19908;-64
2021/07/18 05:27:52;;;;;;;;;;;24.80;56.30;;;;;;5084451;28;19919;-65
2021/07/18 05:30:17;;;;;;;;;;;24.80;56.30;;;;;;5085064;28;19961;-65
2021/07/18 05:32:43;;;;;;;;;;;24.80;56.30;;;;;;5087499;28;19915;-64
2021/07/18 05:35:09;;;;;;;;;;;24.80;56.30;;;;;;5084227;28;19908;-65
2021/07/18 05:37:35;;;;;;;;;;;24.80;56.30;;;;;;5085727;28;19912;-65
2021/07/18 05:40:00;;;;;;;;;;;24.80;56.30;;;;;;5086620;28;20315;-65
2021/07/18 05:42:26;;;;;;;;;;;24.80;56.30;;;;;;5087184;28;19998;-64
2021/07/18 05:44:51;;;;;;;;;;;24.80;56.30;;;;;;5076636;28;19908;-63
2021/07/18 05:47:17;;;;;;;;;;;24.80;56.20;;;;;;5082453;28;20050;-64
2021/07/18 05:49:42;;;;;;;;;;;24.80;53.90;;;;;;5085827;28;19935;-63
2021/07/18 05:52:08;;;;;;;;;;;24.80;52.10;;;;;;5088245;28;19912;-62
2021/07/18 05:54:35;;;;;;;;;;;24.70;51.60;;;;;;5087328;28;20069;-62
2021/07/18 05:57:00;;;;;;;;;;;24.60;51.60;;;;;;5084730;28;20235;-65
2021/07/18 05:59:26;;;;;;;;;;;24.50;51.40;;;;;;5085773;28;19923;-65
2021/07/18 06:01:51;;;;;;;;;;;24.40;51.20;;;;;;5085137;28;20630;-63
2021/07/18 06:04:17;;;;;;;;;;;24.30;51.60;;;;;;5077806;28;19920;-65
2021/07/18 06:06:42;;;;;;;;;;;24.20;51.80;;;;;;5079437;28;20312;-65
2021/07/18 06:09:08;;;;;;;;;;;24.20;52.10;;;;;;5073527;28;19916;-64
2021/07/18 06:11:34;;;;;;;;;;;24.10;52.40;;;;;;5078456;28;20282;-65
2021/07/18 06:14:00;;;;;;;;;;;24.00;52.50;;;;;;5087745;28;19912;-65
2021/07/18 06:16:26;;;;;;;;;;;24.00;53.00;;;;;;5085745;28;19935;-64
2021/07/18 06:18:51;;;;;;;;;;;23.90;53.30;;;;;;5085732;28;19919;-63
2021/07/18 06:21:17;;;;;;;;;;;23.90;53.20;;;;;;5065611;28;19912;-66
2021/07/18 06:23:42;;;;;;;;;;;23.90;53.00;;;;;;5095260;28;19904;-65
2021/07/18 06:26:08;;;;;;;;;;;23.90;53.30;;;;;;5105368;28;19904;-63
2021/07/18 06:28:33;;;;;;;;;;;23.80;53.70;;;;;;5103117;28;19916;-65
2021/07/18 06:30:59;;;;;;;;;;;23.80;53.60;;;;;;5091445;28;19927;-64
2021/07/18 06:33:24;;;;;;;;;;;23.80;53.60;;;;;;5090735;28;20002;-64
2021/07/18 06:35:50;;;;;;;;;;;23.80;53.70;;;;;;5090423;28;19955;-66
2021/07/18 06:38:16;;;;;;;;;;;23.80;54.10;;;;;;5087020;28;20005;-65
2021/07/18 06:40:42;;;;;;;;;;;23.70;54.20;;;;;;5087431;28;19924;-65
2021/07/18 06:43:07;;;;;;;;;;;23.70;54.20;;;;;;5083038;28;19918;-64
2021/07/18 06:45:33;;;;;;;;;;;23.70;54.50;;;;;;5086736;28;20317;-64
2021/07/18 06:47:58;;;;;;;;;;;23.70;54.40;;;;;;5086688;28;19912;-66
2021/07/18 06:50:24;;;;;;;;;;;23.70;54.40;;;;;;5087331;28;20424;-65
2021/07/18 06:52:49;;;;;;;;;;;23.70;54.60;;;;;;5087196;28;19916;-65
2021/07/18 06:55:14;;;;;;;;;;;23.60;54.60;;;;;;5087877;28;19923;-63
2021/07/18 06:57:51;;;;;;;;;;;23.60;54.80;;;;;;5089413;28;19923;-65
2021/07/18 07:00:17;;;;;;;;;;;23.60;54.90;;;;;;5088234;28;19989;-64
2021/07/18 07:02:43;;;;;;;;;;;23.60;55.10;;;;;;5074693;28;20182;-66
2021/07/18 07:05:09;;;;;;;;;;;23.50;55.30;;;;;;5081553;28;19927;-63
2021/07/18 07:07:34;;;;;;;;;;;23.50;55.40;;;;;;5080226;28;20311;-65
2021/07/18 07:10:00;;;;;;;;;;;23.50;55.70;;;;;;5091212;28;20441;-65
2021/07/18 07:12:25;;;;;;;;;;;23.50;55.80;;;;;;5093931;28;19950;-64
2021/07/18 07:14:51;;;;;;;;;;;23.40;55.80;;;;;;5079019;28;19998;-63
2021/07/18 07:17:16;;;;;;;;;;;23.50;55.90;;;;;;5089262;28;20311;-64
2021/07/18 07:19:42;;;;;;;;;;;23.40;55.80;;;;;;5071010;28;19924;-64
2021/07/18 07:22:08;;;;;;;;;;;23.40;55.90;;;;;;5089433;28;19908;-63
2021/07/18 07:24:33;;;;;;;;;;;23.30;56.10;;;;;;5091249;28;19916;-63
2021/07/18 07:26:59;;;;;;;;;;;23.30;56.10;;;;;;5089190;28;19925;-63
2021/07/18 07:29:25;;;;;;;;;;;23.30;56.50;;;;;;5090528;28;19959;-63
2021/07/18 07:31:51;;;;;;;;;;;23.30;56.80;;;;;;5090974;28;19924;-65
2021/07/18 07:34:16;;;;;;;;;;;23.30;57.00;;;;;;5093931;28;19960;-64
2021/07/18 07:36:42;;;;;;;;;;;23.30;57.10;;;;;;5092479;28;20294;-64
2021/07/18 07:39:07;;;;;;;;;;;23.30;56.80;;;;;;5087554;28;19926;-63
2021/07/18 07:41:32;;;;;;;;;;;23.30;57.00;;;;;;5087361;28;20259;-63
2021/07/18 07:43:59;;;;;;;;;;;23.30;57.10;;;;;;5091933;28;19908;-61
2021/07/18 07:46:25;;;;;;;;;;;23.30;57.30;;;;;;5084091;28;19967;-64
2021/07/18 07:48:51;;;;;;;;;;;23.30;57.40;;;;;;5089348;28;19942;-62
2021/07/18 07:51:16;;;;;;;;;;;23.30;57.50;;;;;;5092729;28;19912;-61
2021/07/18 07:53:42;;;;;;;;;;;23.30;57.50;;;;;;5071467;28;19966;-62
2021/07/18 07:56:07;;;;;;;;;;;23.30;57.40;;;;;;5087701;28;19908;-65
2021/07/18 07:58:34;;;;;;;;;;;23.30;57.40;;;;;;5088990;28;19916;-66
2021/07/18 08:00:59;;;;;;;;;;;23.30;57.50;;;;;;5088765;28;19923;-62
2021/07/18 08:03:25;;;;;;;;;;;23.30;57.40;;;;;;5084856;28;20387;-63
2021/07/18 08:05:51;;;;;;;;;;;23.30;57.50;;;;;;5071678;28;20370;-63
2021/07/18 08:08:17;;;;;;;;;;;23.30;57.70;;;;;;5069744;28;19931;-63
2021/07/18 08:10:42;;;;;;;;;;;23.30;57.90;;;;;;5067476;28;20232;-62
2021/07/18 08:13:08;;;;;;;;;;;23.40;58.10;;;;;;5075263;28;19986;-62
2021/07/18 08:15:34;;;;;;;;;;;23.40;58.20;;;;;;5086042;28;19971;-62
2021/07/18 08:17:59;;;;;;;;;;;23.40;58.20;;;;;;5093665;28;19943;-65
2021/07/18 08:20:26;;;;;;;;;;;23.30;58.10;;;;;;5079118;28;19948;-64
2021/07/18 08:22:52;;;;;;;;;;;23.40;58.10;;;;;;5084155;28;20394;-62
2021/07/18 08:25:19;;;;;;;;;;;23.40;58.30;;;;;;5093639;28;19919;-64
2021/07/18 08:27:44;;;;;;;;;;;23.40;58.30;;;;;;5086064;28;19943;-62
2021/07/18 08:30:10;;;;;;;;;;;23.40;58.20;;;;;;5074391;28;20389;-63
2021/07/18 08:32:36;;;;;;;;;;;23.40;58.40;;;;;;5091003;28;20010;-63
2021/07/18 08:35:01;;;;;;;;;;;23.40;58.50;;;;;;5072637;28;19912;-65
2021/07/18 08:37:27;;;;;;;;;;;23.40;58.70;;;;;;5084148;28;19915;-63
2021/07/18 08:39:52;;;;;;;;;;;23.40;58.60;;;;;;5090320;28;19915;-66
2021/07/18 08:42:18;;;;;;;;;;;23.40;58.50;;;;;;5086274;28;19951;-64
2021/07/18 08:44:44;;;;;;;;;;;23.40;58.50;;;;;;5089903;28;20350;-62
2021/07/18 08:47:09;;;;;;;;;;;23.40;58.70;;;;;;5091785;28;20471;-63
2021/07/18 08:49:36;;;;;;;;;;;23.40;58.90;;;;;;5097687;28;19923;-64
2021/07/18 08:52:01;;;;;;;;;;;23.40;58.70;;;;;;5086927;28;20232;-61
2021/07/18 08:54:28;;;;;;;;;;;23.40;58.90;;;;;;5080559;28;19919;-62
2021/07/18 08:56:56;;;;;;;;;;;23.40;59.00;;;;;;5084280;28;20362;-64
2021/07/18 08:59:21;;;;;;;;;;;23.40;59.10;;;;;;5091929;28;19927;-64
2021/07/18 09:01:47;;;;;;;;;;;23.40;59.20;;;;;;5096405;28;19912;-65
2021/07/18 09:04:12;;;;;;;;;;;23.40;59.10;;;;;;5083918;28;19912;-62
2021/07/18 09:06:45;;;;;;;;;;;23.40;59.30;;;;;;5087551;28;19911;-65
2021/07/18 09:09:15;;;;;;;;;;;23.40;59.20;;;;;;5088005;28;19919;-64
2021/07/18 09:11:40;;;;;;;;;;;23.40;59.10;;;;;;5086011;28;19969;-64
2021/07/18 09:14:07;;;;;;;;;;;23.40;59.00;;;;;;5084892;28;20648;-63
2021/07/18 09:16:34;;;;;;;;;;;23.40;59.10;;;;;;5084046;28;19969;-61
2021/07/18 09:19:15;;;;;;;;;;;23.40;59.00;;;;;;5084047;28;19912;-63
2021/07/18 09:21:47;;;;;;;;;;;23.40;59.10;;;;;;5084481;28;19919;-62
2021/07/18 09:24:20;;;;;;;;;;;23.40;59.30;;;;;;5081873;28;19965;-63
2021/07/18 09:27:02;;;;;;;;;;;23.40;59.50;;;;;;5086541;28;20673;-61
2021/07/18 09:29:27;;;;;;;;;;;23.40;59.70;;;;;;5085179;28;19965;-63
2021/07/18 09:32:00;;;;;;;;;;;23.40;59.80;;;;;;5082305;28;19912;-63
2021/07/18 09:34:31;;;;;;;;;;;23.40;59.80;;;;;;5085285;28;19970;-64
2021/07/18 09:37:02;;;;;;;;;;;23.40;59.90;;;;;;5088689;28;19944;-63
2021/07/18 09:39:28;;;;;;;;;;;23.40;59.70;;;;;;5087913;28;20415;-65
2021/07/18 09:41:57;;;;;;;;;;;23.40;59.70;;;;;;5087494;28;19912;-62
2021/07/18 09:44:23;;;;;;;;;;;23.40;59.60;;;;;;5077288;28;19920;-65
2021/07/18 09:46:49;;;;;;;;;;;23.40;59.50;;;;;;5086243;28;19919;-66
2021/07/18 09:49:31;;;;;;;;;;;23.50;59.40;;;;;;5076329;28;20592;-65
2021/07/18 09:52:15;;;;;;;;;;;23.50;59.30;;;;;;5084536;28;20094;-63
2021/07/18 09:54:40;;;;;;;;;;;23.50;59.20;;;;;;5076342;28;19940;-67
2021/07/18 09:57:10;;;;;;;;;;;23.50;59.20;;;;;;5073920;28;20028;-63
2021/07/18 09:59:36;;;;;;;;;;;23.50;59.00;;;;;;5083673;28;19965;-65
2021/07/18 10:02:05;;;;;;;;;;;23.50;58.90;;;;;;5087001;28;20014;-63
2021/07/18 10:04:37;;;;;;;;;;;23.50;58.90;;;;;;5087019;28;19912;-62
2021/07/18 10:07:06;;;;;;;;;;;23.50;58.80;;;;;;5087468;28;19907;-61
2021/07/18 10:09:33;;;;;;;;;;;23.60;58.80;;;;;;5083664;28;19912;-63
2021/07/18 10:11:58;;;;;;;;;;;23.60;58.70;;;;;;5076725;28;19916;-63
2021/07/18 10:14:24;;;;;;;;;;;23.50;58.60;;;;;;5079876;28;20232;-63
2021/07/18 10:16:52;;;;;;;;;;;23.60;58.60;;;;;;5087456;28;19912;-63
2021/07/18 10:19:18;;;;;;;;;;;23.60;58.60;;;;;;5096375;28;19912;-63
2021/07/18 10:21:43;;;;;;;;;;;23.60;58.50;;;;;;5082050;28;20346;-66
2021/07/18 10:24:10;;;;;;;;;;;23.60;58.50;;;;;;5090114;28;19908;-61
2021/07/18 10:26:36;;;;;;;;;;;23.60;58.40;;;;;;5086910;28;19994;-63
2021/07/18 10:29:01;;;;;;;;;;;23.60;58.40;;;;;;5064185;28;19917;-65
2021/07/18 10:31:49;;;;;;;;;;;23.60;58.40;;;;;;5079746;28;19931;-62
2021/07/18 10:34:15;;;;;;;;;;;23.60;58.40;;;;;;5066643;28;19908;-67
2021/07/18 10:36:42;;;;;;;;;;;23.60;58.30;;;;;;5083749;28;20010;-65
2021/07/18 10:39:25;;;;;;;;;;;23.60;58.20;;;;;;5085437;28;19912;-62
2021/07/18 10:41:51;;;;;;;;;;;23.70;58.30;;;;;;5082185;28;19919;-64
2021/07/18 10:44:17;;;;;;;;;;;23.60;58.20;;;;;;5077376;28;20537;-61
2021/07/18 10:46:46;;;;;;;;;;;23.70;58.10;;;;;;5061212;28;19912;-63
2021/07/18 10:49:13;;;;;;;;;;;23.70;58.20;;;;;;5086879;28;19923;-64
2021/07/18 10:51:39;;;;;;;;;;;23.60;58.00;;;;;;5081875;28;19912;-61
2021/07/18 10:54:12;;;;;;;;;;;23.70;58.10;;;;;;5086397;28;19912;-64
2021/07/18 10:56:40;;;;;;;;;;;23.70;58.10;;;;;;5087698;28;19947;-63
2021/07/18 10:59:06;;;;;;;;;;;23.70;58.10;;;;;;5084105;28;20405;-65
2021/07/18 11:01:33;;;;;;;;;;;23.70;58.10;;;;;;5088895;28;19962;-65
2021/07/18 11:03:59;;;;;;;;;;;23.70;58.00;;;;;;5071317;28;20211;-62
2021/07/18 11:06:27;;;;;;;;;;;23.70;58.10;;;;;;5094908;28;19911;-63
2021/07/18 11:09:05;;;;;;;;;;;23.70;58.00;;;;;;5090228;28;20554;-63
2021/07/18 11:11:37;;;;;;;;;;;23.70;58.00;;;;;;5086691;28;20014;-64
2021/07/18 11:14:21;;;;;;;;;;;23.70;58.00;;;;;;5083666;28;19912;-65
2021/07/18 11:16:47;;;;;;;;;;;23.70;57.90;;;;;;5068937;28;20003;-64
2021/07/18 11:19:32;;;;;;;;;;;23.70;57.90;;;;;;5077616;28;20085;-65
2021/07/18 11:21:57;;;;;;;;;;;23.70;57.90;;;;;;5077045;28;20030;-65
2021/07/18 11:24:55;;;;;;;;;;;23.70;57.80;;;;;;5082049;28;19916;-63
2021/07/18 11:27:25;;;;;;;;;;;23.70;57.70;;;;;;5071915;28;19963;-64
2021/07/18 11:29:50;;;;;;;;;;;23.80;57.70;;;;;;5067336;28;19916;-65
2021/07/18 11:32:26;;;;;;;;;;;23.80;57.60;;;;;;5081884;28;20003;-63
2021/07/18 11:34:53;;;;;;;;;;;23.80;57.50;;;;;;5100822;28;19942;-64
2021/07/18 11:37:20;;;;;;;;;;;23.80;57.50;;;;;;5085701;28;20008;-65
2021/07/18 11:39:46;;;;;;;;;;;23.80;57.40;;;;;;5081721;28;19912;-65
2021/07/18 11:42:12;;;;;;;;;;;23.80;57.40;;;;;;5075764;28;19926;-64
2021/07/18 11:44:41;;;;;;;;;;;23.80;57.30;;;;;;5087110;28;20032;-64
2021/07/18 11:47:09;;;;;;;;;;;23.90;57.30;;;;;;5080354;28;19916;-64
2021/07/18 11:49:36;;;;;;;;;;;23.90;57.20;;;;;;5077543;28;19916;-64
2021/07/18 11:52:03;;;;;;;;;;;23.90;57.20;;;;;;5067740;28;20129;-63
2021/07/18 11:54:28;;;;;;;;;;;23.90;57.20;;;;;;5084013;28;19943;-63
2021/07/18 11:56:54;;;;;;;;;;;23.90;57.10;;;;;;5068735;28;19950;-63
2021/07/18 11:59:21;;;;;;;;;;;23.90;57.10;;;;;;5081851;28;20327;-63
2021/07/18 12:01:48;;;;;;;;;;;23.90;57.10;;;;;;5088407;28;19976;-64
2021/07/18 12:04:16;;;;;;;;;;;23.90;57.00;;;;;;5084070;28;20244;-64
2021/07/18 12:06:41;;;;;;;;;;;23.90;57.10;;;;;;5085027;28;19911;-64
2021/07/18 12:09:11;;;;;;;;;;;23.90;57.00;;;;;;5084454;28;20705;-65
2021/07/18 12:11:37;;;;;;;;;;;24.00;57.10;;;;;;5089826;28;20107;-62
2021/07/18 12:14:03;;;;;;;;;;;24.00;57.00;;;;;;5071337;28;19980;-65
2021/07/18 12:16:29;;;;;;;;;;;24.00;56.90;;;;;;5077647;28;19912;-64
2021/07/18 12:18:55;;;;;;;;;;;24.00;56.90;;;;;;5086704;28;19998;-63
2021/07/18 12:21:22;;;;;;;;;;;24.00;56.90;;;;;;5084105;28;19977;-65
2021/07/18 12:24:06;;;;;;;;;;;24.00;56.90;;;;;;5086906;28;19915;-63
2021/07/18 12:26:35;;;;;;;;;;;24.00;56.90;;;;;;5062327;28;19920;-65
2021/07/18 12:29:04;;;;;;;;;;;24.00;56.80;;;;;;5078965;28;19927;-65
2021/07/18 12:31:30;;;;;;;;;;;24.00;56.80;;;;;;5082841;28;19912;-65
2021/07/18 12:33:55;;;;;;;;;;;24.00;56.90;;;;;;5060959;28;19923;-65
2021/07/18 12:36:21;;;;;;;;;;;24.10;57.00;;;;;;5086892;28;19919;-64
2021/07/18 12:38:46;;;;;;;;;;;24.10;57.00;;;;;;5068287;28;20367;-64
2021/07/18 12:41:12;;;;;;;;;;;24.10;57.00;;;;;;5081315;28;20563;-64
2021/07/18 12:43:40;;;;;;;;;;;24.10;57.00;;;;;;5089434;28;19935;-63
2021/07/18 12:46:09;;;;;;;;;;;24.10;57.50;;;;;;5086039;28;19911;-67
2021/07/18 12:48:34;;;;;;;;;;;24.10;57.00;;;;;;5095570;28;20347;-65
2021/07/18 12:51:12;;;;;;;;;;;24.20;56.90;;;;;;5085110;28;19916;-64
2021/07/18 12:53:37;;;;;;;;;;;24.10;57.00;;;;;;5086235;28;19990;-65
2021/07/18 12:56:03;;;;;;;;;;;24.10;57.10;;;;;;5092806;28;20011;-64
2021/07/18 12:58:34;;;;;;;;;;;24.10;57.00;;;;;;5087600;28;19943;-64
2021/07/18 13:01:02;;;;;;;;;;;24.10;57.00;;;;;;5070990;28;19915;-63
2021/07/18 13:03:38;;;;;;;;;;;24.20;57.00;;;;;;5080895;28;19915;-63
2021/07/18 13:06:05;;;;;;;;;;;24.20;57.10;;;;;;5078503;28;19918;-63
2021/07/18 13:08:39;;;;;;;;;;;24.20;57.10;;;;;;5083823;28;19912;-63
2021/07/18 13:11:06;;;;;;;;;;;24.20;57.10;;;;;;5070096;28;19919;-63
2021/07/18 13:13:32;;;;;;;;;;;24.20;57.10;;;;;;5080755;28;19947;-62
2021/07/18 13:15:58;;;;;;;;;;;24.20;57.20;;;;;;5086482;28;19998;-63
2021/07/18 13:18:31;;;;;;;;;;;24.20;57.20;;;;;;5082225;28;19914;-63
2021/07/18 13:21:07;;;;;;;;;;;24.20;57.10;;;;;;5083415;28;20431;-66
2021/07/18 13:23:33;;;;;;;;;;;24.20;57.10;;;;;;5098716;28;19998;-62
2021/07/18 13:25:58;;;;;;;;;;;24.30;57.10;;;;;;5083387;28;20917;-64
2021/07/18 13:28:27;;;;;;;;;;;24.20;57.10;;;;;;5088283;28;20026;-62
2021/07/18 13:30:53;;;;;;;;;;;24.30;57.70;;;;;;5088088;28;19994;-64
2021/07/18 13:33:20;;;;;;;;;;;24.30;57.20;;;;;;5076728;28;19912;-66
2021/07/18 13:35:49;;;;;;;;;;;24.30;57.20;;;;;;5070220;28;19958;-63
2021/07/18 13:38:25;;;;;;;;;;;24.30;57.20;;;;;;5085108;28;20377;-64
2021/07/18 13:40:51;;;;;;;;;;;24.30;57.20;;;;;;5079633;28;20465;-64
2021/07/18 13:43:20;;;;;;;;;;;24.30;57.10;;;;;;5082263;28;19908;-64
2021/07/18 13:45:45;;;;;;;;;;;24.30;57.10;;;;;;5083036;28;19912;-62
2021/07/18 13:48:12;;;;;;;;;;;24.30;57.10;;;;;;5083678;28;19916;-62
2021/07/18 13:50:39;;;;;;;;;;;24.30;57.10;;;;;;5068233;28;20083;-64
2021/07/18 13:53:05;;;;;;;;;;;24.30;57.10;;;;;;5077585;28;19957;-63
2021/07/18 13:55:30;;;;;;;;;;;24.30;57.10;;;;;;5086371;28;20002;-62
2021/07/18 13:57:56;;;;;;;;;;;24.30;57.10;;;;;;5085074;28;19931;-62
2021/07/18 14:00:21;;;;;;;;;;;24.30;57.00;;;;;;5084990;28;19908;-64
2021/07/18 14:02:47;;;;;;;;;;;24.30;57.10;;;;;;5077516;28;20409;-63
2021/07/18 14:05:12;;;;;;;;;;;24.30;57.00;;;;;;5070631;28;19998;-63
2021/07/18 14:07:38;;;;;;;;;;;24.30;57.00;;;;;;5078052;28;20286;-62
2021/07/18 14:10:07;;;;;;;;;;;24.40;57.00;;;;;;5087788;28;20014;-64
2021/07/18 14:12:33;;;;;;;;;;;24.40;57.00;;;;;;5093797;28;19907;-63
2021/07/18 14:14:58;;;;;;;;;;;24.40;57.00;;;;;;5096921;28;20430;-65